createdAt,value
2019-01-03T00:00:07.501Z,73.38
2019-01-03T00:02:55.847Z,74.01
2019-01-03T00:05:44.144Z,73.99
2019-01-03T00:11:13.510Z,75.46
2019-01-03T00:14:15.955Z,74.71
2019-01-03T00:17:04.212Z,74.97
2019-01-03T00:20:11.358Z,75.47
2019-01-03T00:23:02.528Z,76.06
2019-01-03T00:25:50.731Z,76.06
2019-01-03T00:28:38.963Z,75.77
2019-01-03T00:31:27.173Z,75.42
2019-01-03T00:34:15.355Z,75.75
2019-01-03T00:37:03.596Z,75.60
2019-01-03T00:39:57.924Z,75.47
2019-01-03T00:42:46.120Z,75.71
2019-01-03T00:45:26.328Z,75.34
2019-01-03T00:48:14.722Z,75.40
2019-01-03T00:51:09.367Z,75.53
2019-01-03T00:53:57.551Z,75.27
2019-01-03T00:56:45.739Z,74.98
2019-01-03T00:59:34.206Z,74.98
2019-01-03T01:02:40.662Z,75.27
2019-01-03T01:05:29.107Z,75.68
2019-01-03T01:08:17.318Z,76.45
2019-01-03T01:11:05.895Z,76.39
2019-01-03T01:17:03.136Z,75.99
2019-01-03T01:19:51.396Z,76.32
2019-01-03T01:22:36.713Z,76.74
2019-01-03T01:25:25.197Z,77.16
2019-01-03T01:28:31.467Z,76.56
2019-01-03T01:31:19.651Z,76.35
2019-01-03T01:34:07.986Z,76.70
2019-01-03T01:36:56.229Z,76.05
2019-01-03T01:39:44.487Z,76.85
2019-01-03T01:42:32.715Z,76.09
2019-01-03T01:45:20.911Z,76.21
2019-01-03T01:48:07.925Z,76.39
2019-01-03T01:50:56.185Z,76.52
2019-01-03T01:56:50.262Z,76.03
2019-01-03T01:59:38.443Z,76.10
2019-01-03T02:02:26.670Z,76.51
2019-01-03T02:05:14.902Z,76.57
2019-01-03T02:08:03.127Z,76.52
2019-01-03T02:14:05.480Z,75.85
2019-01-03T02:16:53.857Z,76.11
2019-01-03T02:19:42.106Z,75.89
2019-01-03T02:22:30.323Z,76.21
2019-01-03T02:25:18.628Z,75.62
2019-01-03T02:28:07.204Z,75.87
2019-01-03T02:30:55.497Z,76.02
2019-01-03T02:33:44.128Z,76.04
2019-01-03T02:36:51.301Z,75.67
2019-01-03T02:39:39.544Z,75.62
2019-01-03T02:42:27.837Z,75.66
2019-01-03T02:45:16.023Z,75.59
2019-01-03T02:48:04.579Z,75.78
2019-01-03T02:50:52.791Z,75.33
2019-01-03T02:53:41.153Z,75.36
2019-01-03T02:56:29.406Z,75.34
2019-01-03T02:59:17.843Z,75.61
2019-01-03T03:02:06.174Z,75.57
2019-01-03T03:04:54.442Z,75.24
2019-01-03T03:07:42.686Z,75.47
2019-01-03T03:10:30.890Z,75.19
2019-01-03T03:13:19.066Z,75.44
2019-01-03T03:16:07.348Z,75.35
2019-01-03T03:18:58.705Z,75.22
2019-01-03T03:21:49.297Z,75.54
2019-01-03T03:24:37.606Z,74.93
2019-01-03T03:27:25.955Z,74.98
2019-01-03T03:30:14.164Z,74.80
2019-01-03T03:33:02.401Z,74.74
2019-01-03T03:35:45.763Z,74.63
2019-01-03T03:38:33.999Z,74.81
2019-01-03T03:41:22.290Z,74.72
2019-01-03T03:44:29.556Z,74.57
2019-01-03T03:47:17.756Z,74.53
2019-01-03T03:50:06.004Z,74.36
2019-01-03T03:53:09.548Z,74.21
2019-01-03T03:55:57.735Z,74.31
2019-01-03T03:58:52.075Z,74.40
2019-01-03T04:01:40.287Z,74.43
2019-01-03T04:04:28.575Z,74.20
2019-01-03T04:07:16.838Z,74.34
2019-01-03T04:10:08.169Z,74.36
2019-01-03T04:12:56.390Z,74.50
2019-01-03T04:15:44.618Z,74.45
2019-01-03T04:18:35.942Z,74.38
2019-01-03T04:21:24.257Z,74.70
2019-01-03T04:24:12.515Z,74.46
2019-01-03T04:27:00.840Z,74.78
2019-01-03T04:29:52.156Z,74.27
2019-01-03T04:32:59.387Z,74.30
2019-01-03T04:35:47.698Z,74.15
2019-01-03T04:38:35.996Z,74.23
2019-01-03T04:44:17.043Z,74.01
2019-01-03T04:46:59.704Z,73.64
2019-01-03T04:52:43.116Z,73.47
2019-01-03T04:55:31.331Z,73.58
2019-01-03T05:01:53.569Z,73.80
2019-01-03T05:04:41.802Z,73.95
2019-01-03T05:07:30.019Z,74.03
2019-01-03T05:10:18.204Z,74.23
2019-01-03T05:13:06.482Z,74.37
2019-01-03T05:15:54.673Z,74.29
2019-01-03T05:18:42.934Z,74.52
2019-01-03T05:21:31.249Z,74.69
2019-01-03T05:24:19.605Z,75.59
2019-01-03T05:27:07.972Z,75.35
2019-01-03T05:29:56.159Z,75.52
2019-01-03T05:32:44.372Z,75.37
2019-01-03T05:35:32.554Z,75.60
2019-01-03T05:38:21.127Z,75.75
2019-01-03T05:41:07.815Z,75.98
2019-01-03T05:44:11.649Z,76.20
2019-01-03T05:47:00.082Z,76.68
2019-01-03T05:49:48.407Z,76.95
2019-01-03T05:52:36.819Z,76.91
2019-01-03T05:55:25.202Z,77.93
2019-01-03T05:58:13.406Z,77.74
2019-01-03T06:01:01.614Z,77.89
2019-01-03T06:03:49.806Z,77.90
2019-01-03T06:06:37.989Z,78.28
2019-01-03T06:09:27.028Z,78.28
2019-01-03T06:12:10.328Z,78.51
2019-01-03T06:14:58.523Z,79.18
2019-01-03T06:17:47.227Z,79.14
2019-01-03T06:20:35.680Z,79.64
2019-01-03T06:23:24.060Z,79.68
2019-01-03T06:26:12.375Z,79.18
2019-01-03T06:29:00.616Z,78.72
2019-01-03T06:31:49.050Z,78.49
2019-01-03T06:34:37.239Z,78.14
2019-01-03T06:37:25.517Z,78.32
2019-01-03T06:40:13.949Z,78.35
2019-01-03T06:43:02.160Z,78.31
2019-01-03T06:46:07.854Z,78.29
2019-01-03T06:48:56.278Z,78.06
2019-01-03T06:51:44.561Z,77.95
2019-01-03T06:54:32.880Z,77.85
2019-01-03T06:57:18.387Z,77.73
2019-01-03T07:00:09.963Z,77.95
2019-01-03T07:03:17.124Z,77.83
2019-01-03T07:06:05.370Z,77.99
2019-01-03T07:08:53.722Z,78.14
2019-01-03T07:11:42.233Z,78.27
2019-01-03T07:14:30.747Z,78.46
2019-01-03T07:17:19.058Z,78.46
2019-01-03T07:20:07.302Z,78.44
2019-01-03T07:22:55.603Z,78.92
2019-01-03T07:25:43.782Z,78.63
2019-01-03T07:28:31.986Z,78.80
2019-01-03T07:31:20.158Z,78.49
2019-01-03T07:34:08.355Z,78.45
2019-01-03T07:36:56.584Z,78.13
2019-01-03T07:39:38.892Z,78.05
2019-01-03T07:42:27.260Z,77.82
2019-01-03T07:45:15.668Z,77.83
2019-01-03T07:48:03.895Z,78.00
2019-01-03T07:50:52.084Z,77.97
2019-01-03T07:53:40.474Z,78.01
2019-01-03T07:56:28.710Z,78.04
2019-01-03T07:59:16.900Z,78.09
2019-01-03T08:02:05.394Z,78.10
2019-01-03T08:04:53.599Z,78.27
2019-01-03T08:07:41.921Z,78.26
2019-01-03T08:10:36.417Z,78.22
2019-01-03T08:13:24.680Z,78.21
2019-01-03T08:16:12.878Z,78.28
2019-01-03T08:19:01.159Z,78.21
2019-01-03T08:21:49.366Z,78.03
2019-01-03T08:24:37.634Z,78.15
2019-01-03T08:27:25.915Z,78.09
2019-01-03T08:30:14.390Z,78.01
2019-01-03T08:33:02.616Z,77.95
2019-01-03T08:35:50.980Z,77.96
2019-01-03T08:38:35.662Z,78.02
2019-01-03T08:41:24.265Z,78.21
2019-01-03T08:44:12.614Z,78.38
2019-01-03T08:47:01.064Z,78.50
2019-01-03T08:50:01.614Z,78.48
2019-01-03T08:52:49.839Z,78.67
2019-01-03T08:55:38.152Z,78.77
2019-01-03T09:01:21.666Z,78.42
2019-01-03T09:04:10.117Z,77.95
2019-01-03T09:06:58.564Z,77.92
2019-01-03T09:12:52.914Z,77.50
2019-01-03T09:15:41.146Z,76.46
2019-01-03T09:18:29.373Z,75.52
2019-01-03T09:21:17.556Z,75.36
2019-01-03T09:24:06.001Z,75.28
2019-01-03T09:26:54.323Z,74.57
2019-01-03T09:29:43.051Z,74.79
2019-01-03T09:32:31.218Z,75.45
2019-01-03T09:35:38.376Z,75.25
2019-01-03T09:38:26.602Z,75.11
2019-01-03T09:41:14.936Z,75.48
2019-01-03T09:44:03.119Z,75.37
2019-01-03T09:46:32.610Z,75.41
2019-01-03T09:49:01.902Z,75.41
2019-01-03T09:51:31.762Z,75.40
2019-01-03T09:54:01.051Z,75.47
2019-01-03T09:56:30.406Z,75.46
2019-01-03T09:58:59.718Z,75.47
2019-01-03T10:01:29.094Z,75.47
2019-01-03T10:03:58.481Z,75.47
2019-01-03T10:06:27.817Z,75.56
2019-01-03T10:08:57.090Z,75.51
2019-01-03T10:14:01.826Z,75.30
2019-01-03T10:16:31.202Z,75.18
2019-01-03T10:19:00.752Z,74.88
2019-01-03T10:21:30.050Z,74.96
2019-01-03T10:23:59.445Z,74.65
2019-01-03T10:26:28.743Z,74.82
2019-01-03T10:28:58.499Z,74.35
2019-01-03T10:31:27.885Z,74.18
2019-01-03T10:33:57.288Z,73.82
2019-01-03T10:36:27.474Z,72.26
2019-01-03T10:38:57.606Z,72.10
2019-01-03T10:41:26.951Z,72.67
2019-01-03T10:43:56.254Z,72.72
2019-01-03T10:46:25.550Z,72.61
2019-01-03T10:48:55.000Z,72.50
2019-01-03T10:51:24.289Z,71.43
2019-01-03T10:53:53.946Z,71.72
2019-01-03T10:56:23.264Z,71.85
2019-01-03T10:58:52.605Z,71.62
2019-01-03T11:01:21.908Z,71.79
2019-01-03T11:03:51.403Z,71.80
2019-01-03T11:06:20.686Z,71.53
2019-01-03T11:08:50.354Z,71.94
2019-01-03T11:11:19.738Z,71.95
2019-01-03T11:13:49.377Z,71.96
2019-01-03T11:16:18.694Z,71.47
2019-01-03T11:18:48.718Z,71.10
2019-01-03T11:21:18.081Z,71.17
2019-01-03T11:23:47.434Z,70.23
2019-01-03T11:26:16.805Z,70.38
2019-01-03T11:28:46.286Z,70.11
2019-01-03T11:31:15.696Z,69.74
2019-01-03T11:33:45.473Z,69.52
2019-01-03T11:36:14.763Z,69.08
2019-01-03T11:38:44.250Z,68.69
2019-01-03T11:43:48.282Z,68.04
2019-01-03T11:46:18.019Z,68.24
2019-01-03T11:48:47.333Z,67.65
2019-01-03T11:51:17.019Z,67.91
2019-01-03T11:56:20.999Z,67.74
2019-01-03T11:58:50.390Z,66.84
2019-01-03T12:01:19.667Z,66.31
2019-01-03T12:03:49.040Z,64.97
2019-01-03T12:08:53.396Z,65.94
2019-01-03T12:11:22.754Z,66.53
2019-01-03T12:13:52.084Z,66.74
2019-01-03T12:16:21.418Z,66.28
2019-01-03T12:18:50.750Z,65.82
2019-01-03T12:21:20.048Z,65.55
2019-01-03T12:23:49.540Z,64.49
2019-01-03T12:26:18.862Z,64.00
2019-01-03T12:28:48.313Z,65.09
2019-01-03T12:31:36.754Z,65.94
2019-01-03T12:34:06.103Z,66.14
2019-01-03T12:36:35.547Z,66.65
2019-01-03T12:39:06.684Z,67.05
2019-01-03T12:41:36.266Z,67.71
2019-01-03T12:44:17.619Z,68.04
2019-01-03T12:46:47.166Z,67.65
2019-01-03T12:49:35.523Z,66.86
2019-01-03T12:52:04.802Z,67.51
2019-01-03T12:54:34.391Z,67.77
2019-01-03T12:57:03.700Z,68.32
2019-01-03T12:59:33.334Z,68.31
2019-01-03T13:02:02.652Z,68.82
2019-01-03T13:04:32.329Z,69.06
2019-01-03T13:07:20.850Z,69.18
2019-01-03T13:09:50.210Z,69.54
2019-01-03T13:12:19.822Z,69.80
2019-01-03T13:14:49.102Z,70.21
2019-01-03T13:20:12.382Z,70.93
2019-01-03T13:22:41.872Z,71.16
2019-01-03T13:25:11.158Z,71.28
2019-01-03T13:27:59.404Z,71.39
2019-01-03T13:30:28.815Z,71.59
2019-01-03T13:35:46.392Z,71.62
2019-01-03T13:38:15.715Z,71.75
2019-01-03T13:40:45.115Z,71.68
2019-01-03T13:43:14.499Z,71.81
2019-01-03T13:45:43.837Z,71.74
2019-01-03T13:48:13.174Z,71.93
2019-01-03T13:50:42.771Z,71.71
2019-01-03T13:53:12.076Z,71.79
2019-01-03T13:55:41.355Z,71.77
2019-01-03T13:58:29.602Z,71.56
2019-01-03T14:00:58.908Z,71.49
2019-01-03T14:03:28.371Z,70.99
2019-01-03T14:06:16.941Z,70.97
2019-01-03T14:08:46.258Z,70.81
2019-01-03T14:11:15.849Z,71.26
2019-01-03T14:13:45.198Z,71.19
2019-01-03T14:16:14.734Z,71.46
2019-01-03T14:18:44.087Z,71.59
2019-01-03T14:21:32.412Z,71.97
2019-01-03T14:24:01.999Z,72.16
2019-01-03T14:26:31.291Z,72.33
2019-01-03T14:29:00.964Z,72.55
2019-01-03T14:31:30.265Z,72.70
2019-01-03T14:33:59.897Z,73.09
2019-01-03T14:36:29.218Z,73.06
2019-01-03T14:38:58.816Z,73.19
2019-01-03T14:41:28.110Z,73.28
2019-01-03T14:43:57.817Z,73.43
2019-01-03T14:46:27.165Z,73.57
2019-01-03T14:48:57.569Z,73.64
2019-01-03T14:51:26.922Z,73.71
2019-01-03T14:53:56.508Z,73.98
2019-01-03T14:56:25.836Z,74.17
2019-01-03T14:58:55.283Z,74.28
2019-01-03T15:01:24.589Z,74.29
2019-01-03T15:03:54.286Z,74.41
2019-01-03T15:06:23.567Z,74.45
2019-01-03T15:08:53.303Z,74.49
2019-01-03T15:11:22.641Z,74.58
2019-01-03T15:13:52.452Z,74.74
2019-01-03T15:16:21.764Z,74.81
2019-01-03T15:18:51.338Z,75.11
2019-01-03T15:21:20.620Z,75.15
2019-01-03T15:23:50.603Z,75.29
2019-01-03T15:26:19.907Z,75.32
2019-01-03T15:28:49.381Z,75.44
2019-01-03T15:31:18.676Z,75.61
2019-01-03T15:33:48.360Z,75.71
2019-01-03T15:36:36.580Z,75.71
2019-01-03T15:39:06.332Z,75.80
2019-01-03T15:41:36.151Z,75.92
2019-01-03T15:44:24.597Z,75.96
2019-01-03T15:46:53.900Z,76.01
2019-01-03T15:49:23.268Z,75.96
2019-01-03T15:51:52.589Z,76.01
2019-01-03T15:54:22.145Z,75.98
2019-01-03T15:56:51.461Z,76.03
2019-01-03T15:59:20.954Z,76.29
2019-01-03T16:01:50.266Z,76.42
2019-01-03T16:04:19.864Z,76.62
2019-01-03T16:06:49.273Z,76.97
2019-01-03T16:09:18.904Z,76.80
2019-01-03T16:11:48.248Z,76.80
2019-01-03T16:14:17.891Z,76.74
2019-01-03T16:16:47.299Z,76.92
2019-01-03T16:19:16.813Z,77.02
2019-01-03T16:21:46.141Z,77.11
2019-01-03T16:27:04.551Z,77.09
2019-01-03T16:29:33.847Z,77.12
2019-01-03T16:32:03.238Z,77.22
2019-01-03T16:34:32.541Z,77.29
2019-01-03T16:37:02.352Z,77.37
2019-01-03T16:39:31.662Z,77.58
2019-01-03T16:42:01.333Z,77.86
2019-01-03T16:44:30.658Z,78.06
2019-01-03T16:49:48.774Z,78.56
2019-01-03T16:52:18.048Z,78.75
2019-01-03T16:54:47.771Z,79.20
2019-01-03T16:57:17.107Z,79.65
2019-01-03T16:59:46.549Z,79.52
2019-01-03T17:02:15.855Z,79.59
2019-01-03T17:04:45.322Z,80.21
2019-01-03T17:07:14.637Z,80.68
2019-01-03T17:09:44.141Z,80.69
2019-01-03T17:12:13.473Z,80.87
2019-01-03T17:14:42.983Z,81.33
2019-01-03T17:17:12.334Z,81.74
2019-01-03T17:19:41.869Z,81.73
2019-01-03T17:22:11.189Z,81.53
2019-01-03T17:24:40.511Z,81.56
2019-01-03T17:27:09.892Z,81.54
2019-01-03T17:29:39.276Z,81.70
2019-01-03T17:32:08.561Z,81.83
2019-01-03T17:34:38.038Z,81.80
2019-01-03T17:37:07.389Z,82.13
2019-01-03T17:39:36.716Z,83.07
2019-01-03T17:42:06.031Z,82.76
2019-01-03T17:47:23.708Z,82.92
2019-01-03T17:49:52.990Z,83.41
2019-01-03T17:52:22.283Z,83.54
2019-01-03T17:54:51.611Z,83.56
2019-01-03T17:57:20.911Z,83.60
2019-01-03T17:59:50.261Z,84.38
2019-01-03T18:02:19.561Z,84.26
2019-01-03T18:04:49.186Z,84.31
2019-01-03T18:07:18.514Z,84.42
2019-01-03T18:09:48.689Z,84.82
2019-01-03T18:12:18.042Z,85.04
2019-01-03T18:14:47.385Z,85.53
2019-01-03T18:17:16.684Z,86.59
2019-01-03T18:19:46.217Z,86.46
2019-01-03T18:22:15.522Z,86.12
2019-01-03T18:24:45.074Z,86.92
2019-01-03T18:27:14.383Z,87.23
2019-01-03T18:29:43.811Z,87.89
2019-01-03T18:32:13.144Z,88.03
2019-01-03T18:35:01.491Z,88.98
2019-01-03T18:37:31.466Z,88.71
2019-01-03T18:40:00.779Z,89.59
2019-01-03T18:42:30.307Z,89.70
2019-01-03T18:44:59.627Z,89.23
2019-01-03T18:50:36.449Z,89.71
2019-01-03T18:53:06.040Z,90.09
2019-01-03T18:55:35.395Z,90.91
2019-01-03T18:58:04.889Z,92.03
2019-01-03T19:00:34.187Z,92.77
2019-01-03T19:03:22.524Z,90.94
2019-01-03T19:05:52.494Z,90.00
2019-01-03T19:08:21.802Z,89.90
2019-01-03T19:10:51.192Z,89.60
2019-01-03T19:13:20.495Z,89.67
2019-01-03T19:15:50.089Z,88.99
2019-01-03T19:18:19.398Z,89.09
2019-01-03T19:20:48.898Z,89.36
2019-01-03T19:23:18.184Z,89.13
2019-01-03T19:25:47.682Z,89.19
2019-01-03T19:28:16.980Z,89.01
2019-01-03T19:30:46.633Z,88.80
2019-01-03T19:33:15.957Z,88.92
2019-01-03T19:35:45.414Z,88.98
2019-01-03T19:38:14.819Z,88.60
2019-01-03T19:40:44.135Z,88.25
2019-01-03T19:43:13.435Z,88.04
2019-01-03T19:45:42.979Z,87.69
2019-01-03T19:48:12.309Z,87.47
2019-01-03T19:50:41.740Z,87.28
2019-01-03T19:53:11.046Z,87.19
2019-01-03T19:55:59.340Z,87.11
2019-01-03T19:58:28.744Z,87.33
2019-01-03T20:00:58.097Z,87.83
2019-01-03T20:03:27.552Z,87.68
2019-01-03T20:05:57.025Z,87.45
2019-01-03T20:08:26.450Z,87.68
2019-01-03T20:10:55.995Z,87.95
2019-01-03T20:13:25.351Z,87.95
2019-01-03T20:15:55.148Z,87.92
2019-01-03T20:18:24.842Z,87.71
2019-01-03T20:20:54.140Z,87.53
2019-01-03T20:23:23.612Z,87.40
2019-01-03T20:25:52.963Z,87.26
2019-01-03T20:28:22.278Z,87.40
2019-01-03T20:30:51.621Z,87.87
2019-01-03T20:33:20.991Z,88.47
2019-01-03T20:35:50.323Z,89.17
2019-01-03T20:38:19.703Z,89.09
2019-01-03T20:40:49.070Z,88.39
2019-01-03T20:43:18.415Z,88.08
2019-01-03T20:45:47.787Z,87.99
2019-01-03T20:48:17.087Z,87.92
2019-01-03T20:50:46.478Z,87.88
2019-01-03T20:53:15.773Z,88.04
2019-01-03T20:55:45.333Z,88.62
2019-01-03T21:01:02.966Z,88.85
2019-01-03T21:03:32.453Z,88.62
2019-01-03T21:06:01.759Z,88.37
2019-01-03T21:08:31.524Z,88.47
2019-01-03T21:11:01.082Z,89.00
2019-01-03T21:13:30.542Z,89.10
2019-01-03T21:15:59.851Z,88.63
2019-01-03T21:18:29.408Z,88.56
2019-01-03T21:20:58.766Z,88.63
2019-01-03T21:23:28.318Z,88.70
2019-01-03T21:25:57.613Z,88.61
2019-01-03T21:28:27.389Z,88.74
2019-01-03T21:30:56.695Z,89.26
2019-01-03T21:36:14.750Z,89.55
2019-01-03T21:38:44.036Z,89.48
2019-01-03T21:41:13.574Z,89.62
2019-01-03T21:43:42.884Z,89.67
2019-01-03T21:46:12.334Z,89.60
2019-01-03T21:48:41.641Z,89.58
2019-01-03T21:51:11.169Z,89.55
2019-01-03T21:53:52.159Z,89.48
2019-01-03T21:59:42.050Z,89.97
2019-01-03T22:02:11.471Z,90.02
2019-01-03T22:04:40.752Z,90.19
2019-01-03T22:07:28.999Z,90.64
2019-01-03T22:09:58.309Z,90.37
2019-01-03T22:12:27.616Z,90.24
2019-01-03T22:14:56.904Z,90.33
2019-01-03T22:17:28.533Z,90.54
2019-01-03T22:25:27.207Z,90.94
2019-01-03T22:27:56.556Z,90.87
2019-01-03T22:30:26.149Z,90.62
2019-01-03T22:32:55.520Z,90.61
2019-01-03T22:35:24.843Z,90.38
2019-01-03T22:37:54.187Z,90.18
2019-01-03T22:40:42.638Z,90.09
2019-01-03T22:43:11.938Z,90.08
2019-01-03T22:45:41.285Z,90.59
2019-01-03T22:48:29.465Z,91.00
2019-01-03T22:50:59.088Z,90.63
2019-01-03T22:53:28.453Z,91.13
2019-01-03T22:55:58.051Z,91.05
2019-01-03T22:58:27.360Z,90.68
2019-01-03T23:00:57.982Z,90.57
2019-01-03T23:04:06.657Z,90.69
2019-01-03T23:06:35.950Z,91.19
2019-01-03T23:09:44.614Z,91.50
2019-01-03T23:12:13.899Z,91.17
2019-01-03T23:14:43.217Z,91.21
2019-01-03T23:17:12.532Z,91.08
2019-01-03T23:19:41.818Z,90.87
2019-01-03T23:22:11.283Z,90.94
2019-01-03T23:24:40.598Z,90.83
2019-01-03T23:27:09.957Z,90.63
2019-01-03T23:29:39.273Z,90.92
2019-01-03T23:32:08.636Z,91.83
2019-01-03T23:34:37.930Z,91.35
2019-01-03T23:37:07.762Z,91.10
2019-01-03T23:39:37.042Z,91.02
2019-01-03T23:45:14.801Z,91.14
2019-01-03T23:47:44.325Z,91.27
2019-01-03T23:50:15.650Z,91.24
2019-01-03T23:53:04.102Z,91.23
2019-01-03T23:56:11.460Z,91.16
2019-01-03T23:58:40.756Z,91.24
